METAR Formatted Surface Weather Observation
Issued by NWS

Home | Current Version | Previous Version | Text Only | Print | Product List | Glossary On
Versions: 1
000
SAUS41 KRLX 020454
MTRCKB
METAR KCKB 020453Z AUTO 00000KT 10SM CLR 03/M03 A3013 RMK AO2 SLP204
T00331028 401501033 TSNO



USA.gov is the U.S. government's official web portal to all federal, state and local government web resources and services.